createdAt,value
2018-02-27T00:00:05.328Z,59.90
2018-02-27T00:02:31.554Z,59.80
2018-02-27T00:04:57.769Z,60.00
2018-02-27T00:07:23.917Z,60.10
2018-02-27T00:09:50.320Z,59.70
2018-02-27T00:12:16.559Z,58.80
2018-02-27T00:14:42.699Z,59.10
2018-02-27T00:17:08.875Z,58.50
2018-02-27T00:19:35.046Z,58.20
2018-02-27T00:22:01.244Z,57.90
2018-02-27T00:24:27.404Z,56.90
2018-02-27T00:26:53.540Z,56.40
2018-02-27T00:29:19.727Z,56.10
2018-02-27T00:31:45.876Z,55.50
2018-02-27T00:34:12.000Z,55.10
2018-02-27T00:36:38.149Z,55.50
2018-02-27T00:39:04.302Z,54.60
2018-02-27T00:41:30.480Z,54.70
2018-02-27T00:43:56.614Z,54.50
2018-02-27T00:46:22.809Z,53.60
2018-02-27T00:48:49.166Z,53.50
2018-02-27T00:51:15.354Z,52.80
2018-02-27T00:53:41.531Z,53.00
2018-02-27T00:56:14.307Z,53.00
2018-02-27T00:58:40.447Z,53.70
2018-02-27T01:01:06.569Z,53.50
2018-02-27T01:03:32.795Z,53.50
2018-02-27T01:05:58.969Z,53.10
2018-02-27T01:08:26.548Z,50.70
2018-02-27T01:10:52.726Z,49.00
2018-02-27T01:13:19.902Z,47.60
2018-02-27T01:15:46.101Z,47.60
2018-02-27T01:18:15.001Z,47.50
2018-02-27T01:20:41.265Z,47.20
2018-02-27T01:23:08.140Z,47.00
2018-02-27T01:25:34.261Z,46.90
2018-02-27T01:28:01.127Z,47.10
2018-02-27T01:30:28.048Z,47.60
2018-02-27T01:32:54.202Z,47.60
2018-02-27T01:35:21.130Z,48.40
2018-02-27T01:37:47.313Z,47.70
2018-02-27T01:40:13.573Z,47.60
2018-02-27T01:42:39.755Z,47.90
2018-02-27T01:45:06.698Z,47.60
2018-02-27T01:47:32.896Z,47.70
2018-02-27T01:49:59.869Z,48.00
2018-02-27T01:52:26.051Z,47.90
2018-02-27T01:54:52.180Z,48.10
2018-02-27T01:57:18.337Z,48.40
2018-02-27T01:59:44.515Z,48.30
2018-02-27T02:02:11.460Z,48.40
2018-02-27T02:04:37.678Z,48.40
2018-02-27T02:07:03.824Z,48.40
2018-02-27T02:09:29.976Z,48.10
2018-02-27T02:11:56.865Z,48.90
2018-02-27T02:14:22.993Z,48.80
2018-02-27T02:16:49.201Z,48.40
2018-02-27T02:19:15.347Z,48.70
2018-02-27T02:21:41.481Z,48.90
2018-02-27T02:24:07.808Z,48.90
2018-02-27T02:26:33.991Z,48.90
2018-02-27T02:29:00.894Z,48.60
2018-02-27T02:31:27.356Z,48.60
2018-02-27T02:33:53.557Z,49.10
2018-02-27T02:36:19.743Z,49.40
2018-02-27T02:38:45.883Z,49.30
2018-02-27T02:41:12.043Z,49.40
2018-02-27T02:43:38.968Z,49.30
2018-02-27T02:46:05.388Z,49.20
2018-02-27T02:48:31.583Z,49.40
2018-02-27T02:50:57.851Z,49.60
2018-02-27T02:53:24.175Z,49.10
2018-02-27T02:55:50.434Z,49.10
2018-02-27T02:58:16.568Z,49.20
2018-02-27T03:00:42.827Z,49.60
2018-02-27T03:03:08.999Z,49.60
2018-02-27T03:05:35.141Z,49.70
2018-02-27T03:08:01.315Z,49.60
2018-02-27T03:10:28.211Z,49.90
2018-02-27T03:12:54.397Z,49.90
2018-02-27T03:15:21.406Z,49.90
2018-02-27T03:17:47.675Z,49.80
2018-02-27T03:20:13.876Z,50.00
2018-02-27T03:22:40.059Z,50.40
2018-02-27T03:25:06.225Z,50.40
2018-02-27T03:27:32.394Z,49.70
2018-02-27T03:29:58.579Z,49.40
2018-02-27T03:32:24.848Z,49.00
2018-02-27T03:34:51.098Z,49.80
2018-02-27T03:37:17.314Z,49.00
2018-02-27T03:39:43.517Z,48.70
2018-02-27T03:42:09.728Z,49.00
2018-02-27T03:44:35.888Z,49.10
2018-02-27T03:47:02.053Z,49.50
2018-02-27T03:49:28.290Z,49.70
2018-02-27T03:51:55.317Z,49.50
2018-02-27T03:54:21.614Z,49.50
2018-02-27T03:56:48.157Z,49.60
2018-02-27T03:59:14.395Z,49.80
2018-02-27T04:01:40.727Z,49.70
2018-02-27T04:04:06.966Z,50.30
2018-02-27T04:06:33.205Z,50.30
2018-02-27T04:08:59.621Z,50.70
2018-02-27T04:11:25.959Z,50.80
2018-02-27T04:13:52.223Z,50.80
2018-02-27T04:16:18.682Z,50.90
2018-02-27T04:18:44.966Z,51.80
2018-02-27T04:21:11.394Z,51.50
2018-02-27T04:23:37.724Z,51.50
2018-02-27T04:26:04.092Z,52.10
2018-02-27T04:28:30.336Z,52.20
2018-02-27T04:30:56.662Z,52.10
2018-02-27T04:33:23.045Z,52.40
2018-02-27T04:35:49.461Z,52.80
2018-02-27T04:38:15.618Z,53.10
2018-02-27T04:40:41.912Z,53.40
2018-02-27T04:43:08.168Z,53.70
2018-02-27T04:45:34.408Z,53.70
2018-02-27T04:48:00.678Z,53.80
2018-02-27T04:50:27.661Z,54.30
2018-02-27T04:52:53.887Z,54.20
2018-02-27T04:55:20.812Z,54.90
2018-02-27T04:57:47.051Z,54.90
2018-02-27T05:00:13.280Z,55.20
2018-02-27T05:02:39.640Z,55.50
2018-02-27T05:05:05.883Z,55.70
2018-02-27T05:07:32.043Z,55.90
2018-02-27T05:09:58.486Z,56.10
2018-02-27T05:12:24.775Z,56.50
2018-02-27T05:14:51.080Z,56.80
2018-02-27T05:17:17.237Z,57.20
2018-02-27T05:19:44.169Z,57.10
2018-02-27T05:22:10.344Z,57.00
2018-02-27T05:24:36.624Z,56.90
2018-02-27T05:27:02.839Z,57.30
2018-02-27T05:29:29.153Z,57.60
2018-02-27T05:31:55.485Z,57.80
2018-02-27T05:34:21.675Z,57.90
2018-02-27T05:36:47.815Z,58.10
2018-02-27T05:39:13.991Z,58.20
2018-02-27T05:41:40.176Z,58.60
2018-02-27T05:44:06.441Z,58.90
2018-02-27T05:46:32.631Z,58.90
2018-02-27T05:48:58.927Z,59.30
2018-02-27T05:51:25.161Z,59.40
2018-02-27T05:53:51.327Z,59.50
2018-02-27T05:56:17.506Z,59.80
2018-02-27T05:58:44.800Z,60.50
2018-02-27T06:01:12.523Z,60.50
2018-02-27T06:03:39.588Z,61.10
2018-02-27T06:06:05.885Z,61.10
2018-02-27T06:08:32.036Z,61.20
2018-02-27T06:11:01.078Z,61.30
2018-02-27T06:13:27.313Z,61.60
2018-02-27T06:15:54.327Z,62.30
2018-02-27T06:18:20.484Z,62.30
2018-02-27T06:20:46.671Z,62.40
2018-02-27T06:23:12.868Z,62.50
2018-02-27T06:25:39.015Z,62.90
2018-02-27T06:28:05.145Z,63.30
2018-02-27T06:30:31.263Z,63.40
2018-02-27T06:32:57.392Z,63.40
2018-02-27T06:35:24.380Z,63.40
2018-02-27T06:37:50.628Z,63.50
2018-02-27T06:40:16.903Z,63.40
2018-02-27T06:42:43.176Z,63.70
2018-02-27T06:45:09.521Z,63.50
2018-02-27T06:47:35.724Z,63.40
2018-02-27T06:50:02.725Z,63.50
2018-02-27T06:52:29.059Z,63.40
2018-02-27T06:54:55.400Z,63.50
2018-02-27T06:57:21.722Z,63.40
2018-02-27T06:59:48.690Z,63.20
2018-02-27T07:02:15.608Z,63.00
2018-02-27T07:04:41.811Z,63.00
2018-02-27T07:07:08.481Z,63.30
2018-02-27T07:09:34.811Z,62.70
2018-02-27T07:12:01.039Z,62.60
2018-02-27T07:14:27.719Z,62.70
2018-02-27T07:16:53.904Z,63.50
2018-02-27T07:19:20.815Z,62.10
2018-02-27T07:21:46.988Z,62.10
2018-02-27T07:24:13.148Z,62.00
2018-02-27T07:26:40.091Z,61.20
2018-02-27T07:29:10.806Z,61.20
2018-02-27T07:31:37.184Z,61.60
2018-02-27T07:34:04.067Z,60.90
2018-02-27T07:36:33.741Z,60.70
2018-02-27T07:39:00.820Z,60.30
2018-02-27T07:41:27.253Z,60.10
2018-02-27T07:43:53.864Z,68.80
2018-02-27T07:49:13.835Z,58.90
2018-02-27T07:51:40.107Z,58.10
2018-02-27T07:54:07.234Z,57.60
2018-02-27T07:56:34.016Z,57.50
2018-02-27T07:59:01.647Z,57.40
2018-02-27T08:01:28.194Z,57.40
2018-02-27T08:03:54.759Z,57.20
2018-02-27T08:06:20.964Z,56.30
2018-02-27T08:08:47.172Z,55.50
2018-02-27T08:11:13.318Z,54.80
2018-02-27T08:13:39.520Z,54.60
2018-02-27T08:16:05.668Z,53.90
2018-02-27T08:18:31.958Z,53.50
2018-02-27T08:20:58.096Z,52.50
2018-02-27T08:23:24.285Z,52.20
2018-02-27T08:25:51.226Z,51.70
2018-02-27T08:28:18.157Z,51.00
2018-02-27T08:30:44.363Z,51.00
2018-02-27T08:33:10.495Z,50.10
2018-02-27T08:35:37.583Z,49.50
2018-02-27T08:38:03.714Z,49.90
2018-02-27T08:40:30.632Z,48.40
2018-02-27T08:42:56.775Z,48.40
2018-02-27T08:45:22.901Z,48.60
2018-02-27T08:47:49.165Z,47.70
2018-02-27T08:50:15.311Z,47.00
2018-02-27T08:52:41.440Z,44.80
2018-02-27T08:55:08.336Z,44.00
2018-02-27T08:57:34.522Z,43.40
2018-02-27T09:00:00.664Z,42.60
2018-02-27T09:02:26.791Z,42.40
2018-02-27T09:04:53.024Z,41.20
2018-02-27T09:07:19.217Z,41.50
2018-02-27T09:09:45.406Z,40.90
2018-02-27T09:12:14.267Z,39.80
2018-02-27T09:14:40.505Z,40.10
2018-02-27T09:17:06.656Z,40.30
2018-02-27T09:19:32.851Z,39.00
2018-02-27T09:21:59.182Z,38.10
2018-02-27T09:24:25.340Z,39.20
2018-02-27T09:26:51.469Z,39.40
2018-02-27T09:29:17.618Z,38.50
2018-02-27T09:31:43.785Z,37.70
2018-02-27T09:34:10.699Z,36.40
2018-02-27T09:36:36.815Z,36.30
2018-02-27T09:39:03.076Z,37.40
2018-02-27T09:41:29.579Z,37.10
2018-02-27T09:43:55.838Z,36.60
2018-02-27T09:46:22.040Z,35.20
2018-02-27T09:48:48.964Z,34.10
2018-02-27T09:51:15.783Z,34.10
2018-02-27T09:53:42.827Z,35.10
2018-02-27T09:56:09.033Z,35.00
2018-02-27T09:58:35.237Z,34.40
2018-02-27T10:01:01.484Z,33.50
2018-02-27T10:03:27.719Z,32.50
2018-02-27T10:05:53.923Z,32.00
2018-02-27T10:08:20.099Z,31.70
2018-02-27T10:10:46.275Z,32.80
2018-02-27T10:13:12.481Z,31.90
2018-02-27T10:15:38.710Z,30.70
2018-02-27T10:18:05.339Z,31.30
2018-02-27T10:20:32.429Z,31.70
2018-02-27T10:22:58.668Z,31.70
2018-02-27T10:25:24.854Z,31.10
2018-02-27T10:27:50.999Z,30.30
2018-02-27T10:30:17.166Z,30.30
2018-02-27T10:32:44.059Z,29.10
2018-02-27T10:35:10.224Z,29.10
2018-02-27T10:37:36.395Z,29.20
2018-02-27T10:40:02.562Z,28.90
2018-02-27T10:42:28.715Z,30.30
2018-02-27T10:44:54.879Z,29.70
2018-02-27T10:47:21.095Z,29.10
2018-02-27T10:49:47.296Z,28.80
2018-02-27T10:52:14.363Z,28.80
2018-02-27T10:54:40.535Z,28.40
2018-02-27T10:57:06.656Z,28.90
2018-02-27T10:59:33.652Z,28.30
2018-02-27T11:02:02.705Z,28.30
2018-02-27T11:04:29.581Z,28.30
2018-02-27T11:06:55.776Z,28.70
2018-02-27T11:09:22.023Z,27.80
2018-02-27T11:11:48.239Z,27.80
2018-02-27T11:14:14.560Z,27.90
2018-02-27T11:16:40.843Z,27.30
2018-02-27T11:19:07.036Z,27.70
2018-02-27T11:21:33.203Z,27.30
2018-02-27T11:23:59.366Z,28.30
2018-02-27T11:26:25.527Z,28.20
2018-02-27T11:28:51.708Z,27.20
2018-02-27T11:31:17.891Z,27.80
2018-02-27T11:33:44.812Z,26.80
2018-02-27T11:36:10.935Z,26.80
2018-02-27T11:38:37.082Z,27.60
2018-02-27T11:41:03.231Z,27.60
2018-02-27T11:43:29.447Z,26.50
2018-02-27T11:45:55.711Z,26.80
2018-02-27T11:48:21.899Z,27.30
2018-02-27T11:50:48.913Z,26.40
2018-02-27T11:53:15.146Z,26.40
2018-02-27T11:55:41.380Z,26.50
2018-02-27T11:58:07.570Z,26.20
2018-02-27T12:00:33.885Z,26.80
2018-02-27T12:03:00.064Z,26.70
2018-02-27T12:05:26.954Z,25.90
2018-02-27T12:07:53.213Z,25.90
2018-02-27T12:10:19.436Z,26.00
2018-02-27T12:12:45.615Z,25.70
2018-02-27T12:15:11.832Z,26.70
2018-02-27T12:17:38.004Z,26.90
2018-02-27T12:20:04.968Z,25.80
2018-02-27T12:28:40.417Z,26.10
2018-02-27T12:31:11.399Z,25.60
2018-02-27T12:36:12.392Z,24.80
2018-02-27T12:38:43.509Z,25.10
2018-02-27T12:41:10.761Z,25.50
2018-02-27T12:43:44.182Z,25.50
2018-02-27T12:48:45.436Z,25.20
2018-02-27T12:51:11.615Z,25.60
2018-02-27T12:53:38.241Z,25.60
2018-02-27T12:56:04.450Z,25.80
2018-02-27T12:58:30.703Z,24.50
2018-02-27T13:01:01.345Z,23.70
2018-02-27T13:03:27.522Z,23.20
2018-02-27T13:05:54.452Z,24.00
2018-02-27T13:08:20.659Z,24.00
2018-02-27T13:10:46.975Z,24.20
2018-02-27T13:13:13.816Z,24.20
2018-02-27T13:15:40.169Z,23.80
2018-02-27T13:18:07.083Z,25.00
2018-02-27T13:20:33.452Z,24.90
2018-02-27T13:22:59.884Z,23.90
2018-02-27T13:25:27.867Z,24.70
2018-02-27T13:27:56.239Z,24.80
2018-02-27T13:30:22.592Z,24.00
2018-02-27T13:32:48.831Z,24.50
2018-02-27T13:35:15.071Z,24.30
2018-02-27T13:37:41.346Z,23.70
2018-02-27T13:40:07.605Z,23.30
2018-02-27T13:42:34.017Z,24.60
2018-02-27T13:45:00.295Z,23.90
2018-02-27T13:47:26.696Z,24.00
2018-02-27T13:49:52.892Z,23.40
2018-02-27T13:52:19.120Z,24.10
2018-02-27T13:54:45.323Z,24.20
2018-02-27T13:57:13.101Z,24.50
2018-02-27T13:59:40.039Z,24.60
2018-02-27T14:02:06.636Z,24.70
2018-02-27T14:04:32.864Z,25.00
2018-02-27T14:07:00.158Z,24.20
2018-02-27T14:09:26.520Z,24.10
2018-02-27T14:11:53.082Z,23.40
2018-02-27T14:14:20.065Z,23.50
2018-02-27T14:16:47.395Z,23.50
2018-02-27T14:19:13.640Z,24.10
2018-02-27T14:21:43.749Z,23.90
2018-02-27T14:24:10.230Z,24.90
2018-02-27T14:26:36.628Z,24.70
2018-02-27T14:29:03.551Z,24.40
2018-02-27T14:31:29.812Z,23.70
2018-02-27T14:33:56.084Z,24.20
2018-02-27T14:36:22.279Z,24.70
2018-02-27T14:38:48.684Z,25.00
2018-02-27T14:41:16.223Z,24.70
2018-02-27T14:43:42.992Z,25.20
2018-02-27T14:46:09.633Z,25.20
2018-02-27T14:48:40.966Z,24.50
2018-02-27T14:51:07.961Z,24.70
2018-02-27T14:53:38.020Z,24.90
2018-02-27T14:56:04.260Z,24.90
2018-02-27T14:58:30.419Z,25.60
2018-02-27T15:00:56.693Z,26.20
2018-02-27T15:03:23.301Z,26.60
2018-02-27T15:05:49.533Z,26.50
2018-02-27T15:08:15.800Z,26.00
2018-02-27T15:10:42.040Z,25.60
2018-02-27T15:13:09.278Z,25.70
2018-02-27T15:15:36.450Z,26.40
2018-02-27T15:18:03.416Z,26.90
2018-02-27T15:20:29.588Z,26.90
2018-02-27T15:22:55.776Z,26.90
2018-02-27T15:25:21.935Z,27.00
2018-02-27T15:27:48.115Z,26.80
2018-02-27T15:30:17.049Z,27.00
2018-02-27T15:32:43.202Z,27.00
2018-02-27T15:35:09.425Z,27.70
2018-02-27T15:37:35.769Z,27.40
2018-02-27T15:40:02.081Z,27.10
2018-02-27T15:42:28.328Z,27.00
2018-02-27T15:44:54.552Z,26.90
2018-02-27T15:47:20.776Z,26.90
2018-02-27T15:49:47.132Z,26.70
2018-02-27T15:52:13.293Z,26.70
2018-02-27T15:54:39.508Z,26.50
2018-02-27T15:57:05.660Z,27.30
2018-02-27T15:59:31.795Z,27.10
2018-02-27T16:01:57.936Z,27.60
2018-02-27T16:04:24.136Z,27.60
2018-02-27T16:06:50.474Z,27.90
2018-02-27T16:09:17.311Z,28.10
2018-02-27T16:11:44.421Z,28.20
2018-02-27T16:20:18.185Z,28.80
2018-02-27T16:22:45.148Z,29.00
2018-02-27T16:25:12.145Z,29.30
2018-02-27T16:27:38.686Z,29.50
2018-02-27T16:30:05.185Z,29.30
2018-02-27T16:32:31.501Z,28.90
2018-02-27T16:35:02.778Z,29.00
2018-02-27T16:37:31.141Z,29.40
2018-02-27T16:39:57.505Z,29.50
2018-02-27T16:42:23.710Z,30.00
2018-02-27T16:54:05.709Z,31.50
2018-02-27T16:56:32.076Z,30.90
2018-02-27T17:01:34.443Z,32.40
2018-02-27T17:04:00.748Z,32.40
2018-02-27T17:06:29.465Z,32.30
2018-02-27T17:08:55.784Z,32.30
2018-02-27T17:11:22.183Z,32.50
2018-02-27T17:13:48.386Z,33.10
2018-02-27T17:16:14.635Z,33.60
2018-02-27T17:18:40.884Z,34.50
2018-02-27T17:21:09.296Z,33.80
2018-02-27T17:23:35.855Z,33.80
2018-02-27T17:26:03.630Z,35.00
2018-02-27T17:28:31.266Z,34.70
2018-02-27T17:31:02.640Z,35.30
2018-02-27T17:33:32.612Z,34.90
2018-02-27T17:36:06.013Z,35.10
2018-02-27T17:38:32.785Z,35.40
2018-02-27T17:41:04.346Z,35.90
2018-02-27T17:43:32.160Z,35.90
2018-02-27T17:46:05.688Z,36.00
2018-02-27T17:48:35.034Z,36.40
2018-02-27T17:51:01.323Z,36.40
2018-02-27T17:53:35.401Z,36.60
2018-02-27T17:56:01.763Z,36.70
2018-02-27T17:58:29.866Z,36.90
2018-02-27T18:01:00.540Z,37.10
2018-02-27T18:03:27.268Z,37.10
2018-02-27T18:05:53.809Z,37.20
2018-02-27T18:08:20.209Z,37.50
2018-02-27T18:10:46.618Z,37.70
2018-02-27T18:13:15.013Z,37.50
2018-02-27T18:15:41.367Z,37.60
2018-02-27T18:39:47.884Z,38.70
2018-02-27T18:42:15.531Z,38.40
2018-02-27T18:44:43.217Z,38.80
2018-02-27T18:47:09.716Z,39.10
2018-02-27T18:49:36.073Z,39.00
2018-02-27T18:52:07.508Z,39.60
2018-02-27T18:54:44.132Z,39.70
2018-02-27T18:57:12.199Z,39.70
2018-02-27T18:59:44.948Z,39.40
2018-02-27T19:02:11.280Z,39.70
2018-02-27T19:04:46.938Z,39.40
2018-02-27T19:07:14.729Z,40.10
2018-02-27T19:09:42.246Z,39.70
2018-02-27T19:12:09.471Z,39.70
2018-02-27T19:14:35.841Z,39.70
2018-02-27T19:17:03.459Z,40.30
2018-02-27T19:25:40.090Z,40.20
2018-02-27T19:28:15.363Z,40.40
2018-02-27T19:30:45.581Z,40.60
2018-02-27T19:33:19.384Z,40.50
2018-02-27T19:35:45.705Z,40.90
2018-02-27T19:38:12.081Z,41.10
2018-02-27T19:40:42.060Z,41.00
2018-02-27T19:43:08.356Z,41.20
2018-02-27T19:45:35.269Z,41.20
2018-02-27T19:48:01.997Z,41.80
2018-02-27T19:50:35.524Z,41.70
2018-02-27T19:53:02.004Z,41.70
2018-02-27T19:55:28.473Z,41.90
2018-02-27T19:57:55.197Z,42.00
2018-02-27T20:00:29.284Z,42.50
2018-02-27T20:02:55.523Z,42.50
2018-02-27T20:05:21.699Z,42.40
2018-02-27T20:07:47.828Z,42.50
2018-02-27T20:10:14.469Z,42.60
2018-02-27T20:12:41.003Z,42.70
2018-02-27T20:15:10.858Z,42.60
2018-02-27T20:17:44.334Z,42.70
2018-02-27T20:20:10.791Z,42.80
2018-02-27T20:22:44.833Z,43.10
2018-02-27T20:25:12.771Z,42.90
2018-02-27T20:27:40.309Z,43.00
2018-02-27T20:30:07.226Z,43.60
2018-02-27T20:32:33.418Z,43.60
2018-02-27T20:34:59.613Z,43.60
2018-02-27T20:37:25.784Z,43.70
2018-02-27T20:39:51.939Z,43.70
2018-02-27T20:45:12.406Z,43.90
2018-02-27T20:50:10.421Z,44.20
2018-02-27T20:52:37.639Z,44.20
2018-02-27T20:55:04.747Z,44.60
2018-02-27T20:57:32.111Z,45.00
2018-02-27T20:59:58.420Z,44.60
2018-02-27T21:02:24.599Z,44.80
2018-02-27T21:04:50.766Z,44.90
2018-02-27T21:07:16.912Z,44.90
2018-02-27T21:09:43.136Z,45.00
2018-02-27T21:12:09.276Z,45.10
2018-02-27T21:14:35.909Z,45.30
2018-02-27T21:17:02.144Z,45.30
2018-02-27T21:19:28.395Z,45.50
2018-02-27T21:22:01.728Z,45.90
2018-02-27T21:24:27.948Z,46.30
2018-02-27T21:26:54.083Z,46.80
2018-02-27T21:29:20.217Z,46.90
2018-02-27T21:31:46.677Z,47.20
2018-02-27T21:34:13.159Z,47.20
2018-02-27T21:36:40.110Z,47.50
2018-02-27T21:39:06.425Z,47.40
2018-02-27T21:41:32.557Z,47.60
2018-02-27T21:43:58.769Z,47.60
2018-02-27T21:46:24.975Z,47.80
2018-02-27T21:48:51.220Z,48.00
2018-02-27T21:51:17.336Z,48.10
2018-02-27T21:53:43.501Z,48.10
2018-02-27T21:56:09.664Z,48.20
2018-02-27T21:58:35.827Z,48.40
2018-02-27T22:01:02.390Z,48.50
2018-02-27T22:03:28.498Z,48.40
2018-02-27T22:05:55.376Z,48.50
2018-02-27T22:08:21.575Z,48.50
2018-02-27T22:10:47.712Z,48.50
2018-02-27T22:13:13.974Z,48.40
2018-02-27T22:15:40.868Z,48.40
2018-02-27T22:18:07.337Z,48.40
2018-02-27T22:20:33.611Z,48.50
2018-02-27T22:23:00.589Z,48.90
2018-02-27T22:25:27.568Z,48.90
2018-02-27T22:27:53.703Z,48.70
2018-02-27T22:30:19.904Z,48.80
2018-02-27T22:32:46.091Z,49.10
2018-02-27T22:35:12.246Z,49.20
2018-02-27T22:37:39.943Z,49.40
2018-02-27T22:40:06.156Z,49.40
2018-02-27T22:42:32.287Z,49.70
2018-02-27T22:44:58.472Z,49.90
2018-02-27T22:47:24.627Z,50.20
2018-02-27T22:49:51.555Z,50.50
2018-02-27T22:52:17.716Z,50.50
2018-02-27T22:54:43.872Z,50.90
2018-02-27T22:57:10.792Z,50.90
2018-02-27T22:59:39.084Z,50.80
2018-02-27T23:02:06.059Z,50.70
2018-02-27T23:04:32.204Z,50.70
2018-02-27T23:06:58.344Z,50.60
2018-02-27T23:09:24.492Z,50.70
2018-02-27T23:11:50.616Z,50.70
2018-02-27T23:14:16.786Z,50.70
2018-02-27T23:16:42.901Z,50.80
2018-02-27T23:19:09.026Z,50.70
2018-02-27T23:21:35.171Z,50.80
2018-02-27T23:24:03.875Z,51.00
2018-02-27T23:26:38.066Z,51.20
2018-02-27T23:29:05.035Z,51.20
2018-02-27T23:31:32.893Z,51.30
2018-02-27T23:34:04.119Z,51.50
2018-02-27T23:36:31.377Z,51.80
2018-02-27T23:38:58.260Z,51.80
2018-02-27T23:41:24.383Z,51.80
2018-02-27T23:43:50.546Z,51.80
2018-02-27T23:46:16.705Z,51.80
2018-02-27T23:48:42.838Z,51.80
2018-02-27T23:51:09.126Z,51.90
2018-02-27T23:53:35.283Z,51.90
2018-02-27T23:56:01.442Z,52.40
2018-02-27T23:58:27.580Z,51.70
